Terminal Aerodrome Forecast
Issued by NWS Cleveland, OH

Home | Current Version | Previous Version | Graphics & Text | Print | Product List | Glossary On
Versions: 1 2 3 4 5 6 7 8 9 10 11 12 13 14 15 16 17 18
753
FTUS41 KCLE 131122
TAFCAK
TAF
KCAK 131122Z 1312/1412 32006KT P6SM BKN025
      TEMPO 1312/1316 SCT025
     FM131600 34008KT P6SM BKN250
     FM131800 01008KT P6SM BKN250
     FM140200 05005KT P6SM OVC120
     FM141100 07005KT P6SM OVC045=

USA.gov is the U.S. government's official web portal to all federal, state and local government web resources and services.